createdAt,value
2019-04-22T00:00:42.476Z,35.80
2019-04-22T00:03:53.286Z,35.80
2019-04-22T00:07:15.636Z,35.80
2019-04-22T00:10:28.938Z,36.00
2019-04-22T00:13:37.438Z,35.90
2019-04-22T00:16:37.823Z,36.10
2019-04-22T00:19:48.091Z,36.10
2019-04-22T00:22:44.859Z,36.10
2019-04-22T00:29:21.077Z,36.40
2019-04-22T00:32:39.622Z,36.30
2019-04-22T00:35:42.007Z,36.40
2019-04-22T00:38:56.514Z,36.40
2019-04-22T00:41:56.467Z,36.50
2019-04-22T00:48:09.108Z,36.80
2019-04-22T00:51:14.347Z,36.90
2019-04-22T00:54:14.015Z,36.80
2019-04-22T00:57:21.472Z,36.80
2019-04-22T01:00:31.073Z,37.10
2019-04-22T01:03:44.822Z,37.10
2019-04-22T01:06:45.893Z,37.20
2019-04-22T01:09:58.524Z,37.20
2019-04-22T01:12:56.984Z,37.20
2019-04-22T01:16:04.568Z,37.10
2019-04-22T01:19:14.334Z,37.20
2019-04-22T01:22:20.436Z,37.00
2019-04-22T01:25:23.382Z,37.30
2019-04-22T01:28:27.896Z,37.40
2019-04-22T01:31:24.920Z,37.40
2019-04-22T01:34:40.544Z,37.40
2019-04-22T01:37:52.484Z,37.60
2019-04-22T01:41:09.632Z,37.60
2019-04-22T01:44:15.855Z,37.80
2019-04-22T01:47:23.230Z,37.70
2019-04-22T01:50:19.971Z,37.90
2019-04-22T01:53:31.380Z,37.80
2019-04-22T01:56:33.277Z,37.80
2019-04-22T01:59:32.541Z,37.70
2019-04-22T02:02:49.242Z,37.70
2019-04-22T02:05:56.702Z,37.80
2019-04-22T02:09:00.847Z,37.90
2019-04-22T02:12:05.949Z,37.90
2019-04-22T02:15:12.007Z,37.90
2019-04-22T02:21:21.596Z,38.30
2019-04-22T02:24:33.694Z,38.70
2019-04-22T02:27:38.990Z,38.70
2019-04-22T02:31:04.963Z,38.80
2019-04-22T02:36:56.235Z,38.80
2019-04-22T02:40:03.861Z,38.80
2019-04-22T02:43:12.175Z,38.80
2019-04-22T02:49:25.467Z,38.80
2019-04-22T02:52:31.250Z,38.80
2019-04-22T02:55:33.030Z,38.90
2019-04-22T03:01:54.173Z,39.00
2019-04-22T03:04:52.944Z,39.00
2019-04-22T03:20:20.125Z,39.20
2019-04-22T03:26:43.322Z,39.50
2019-04-22T03:36:58.260Z,39.70
2019-04-22T03:39:38.014Z,39.70
2019-04-22T03:42:45.686Z,39.80
2019-04-22T03:49:01.133Z,40.10
2019-04-22T03:52:05.402Z,40.10
2019-04-22T03:55:03.265Z,39.80
2019-04-22T03:57:57.204Z,40.30
2019-04-22T04:01:21.889Z,40.30
2019-04-22T04:07:40.587Z,40.40
2019-04-22T04:10:35.320Z,40.50
2019-04-22T04:13:33.756Z,40.60
2019-04-22T04:16:52.221Z,40.80
2019-04-22T04:20:05.710Z,41.10
2019-04-22T04:32:31.070Z,41.20
2019-04-22T04:35:33.194Z,41.10
2019-04-22T04:38:24.368Z,41.70
2019-04-22T04:41:41.864Z,42.30
2019-04-22T04:47:49.206Z,42.90
2019-04-22T04:51:05.105Z,42.90
2019-04-22T04:54:10.341Z,42.60
2019-04-22T04:56:56.746Z,42.10
2019-04-22T05:03:23.426Z,41.20
2019-04-22T05:06:33.089Z,40.80
2019-04-22T05:09:38.568Z,40.40
2019-04-22T05:12:45.684Z,40.00
2019-04-22T05:15:57.670Z,39.60
2019-04-22T05:18:45.844Z,39.40
2019-04-22T05:21:54.539Z,39.20
2019-04-22T05:24:58.272Z,39.10
2019-04-22T05:27:57.905Z,38.80
2019-04-22T05:31:10.036Z,38.30
2019-04-22T05:34:09.650Z,38.10
2019-04-22T05:37:22.195Z,38.30
2019-04-22T05:40:54.521Z,38.10
2019-04-22T05:43:38.554Z,37.90
2019-04-22T05:46:34.801Z,37.90
2019-04-22T05:49:41.715Z,37.30
2019-04-22T05:52:54.245Z,36.70
2019-04-22T05:56:04.218Z,36.20
2019-04-22T05:59:11.681Z,36.00
2019-04-22T06:05:17.327Z,35.50
2019-04-22T06:08:25.632Z,34.80
2019-04-22T06:11:31.254Z,34.10
2019-04-22T06:14:37.078Z,33.30
2019-04-22T06:17:55.716Z,32.50
2019-04-22T06:21:03.973Z,32.00
2019-04-22T06:24:13.925Z,31.60
2019-04-22T06:27:19.109Z,31.90
2019-04-22T06:30:15.705Z,32.60
2019-04-22T06:33:23.222Z,33.50
2019-04-22T06:36:30.626Z,34.30
2019-04-22T06:39:34.299Z,34.90
2019-04-22T06:42:44.117Z,35.00
2019-04-22T06:45:43.800Z,34.80
2019-04-22T06:48:52.462Z,34.40
2019-04-22T06:52:06.006Z,33.60
2019-04-22T06:55:13.582Z,33.10
2019-04-22T06:58:10.357Z,32.90
2019-04-22T07:01:24.469Z,32.60
2019-04-22T07:04:23.238Z,32.30
2019-04-22T07:07:24.028Z,32.10
2019-04-22T07:13:42.891Z,32.00
2019-04-22T07:16:54.299Z,31.20
2019-04-22T07:19:52.264Z,30.60
2019-04-22T07:23:06.807Z,30.60
2019-04-22T07:26:05.999Z,30.60
2019-04-22T07:29:17.071Z,30.60
2019-04-22T07:32:25.348Z,30.00
2019-04-22T07:35:30.831Z,30.00
2019-04-22T07:38:26.869Z,30.00
2019-04-22T07:41:37.908Z,30.00
2019-04-22T07:44:45.038Z,29.80
2019-04-22T07:47:52.436Z,29.50
2019-04-22T07:51:05.477Z,29.30
2019-04-22T07:54:01.801Z,28.60
2019-04-22T07:57:15.082Z,28.90
2019-04-22T08:00:15.980Z,28.50
2019-04-22T08:03:30.362Z,28.80
2019-04-22T08:06:29.318Z,27.70
2019-04-22T08:09:35.604Z,27.10
2019-04-22T08:15:47.080Z,25.80
2019-04-22T08:18:52.651Z,25.80
2019-04-22T08:21:59.171Z,25.80
2019-04-22T08:28:13.385Z,25.50
2019-04-22T08:31:20.303Z,25.20
2019-04-22T08:40:43.241Z,25.30
2019-04-22T08:43:56.230Z,24.70
2019-04-22T08:46:48.675Z,25.30
2019-04-22T08:50:03.203Z,25.40
2019-04-22T08:53:08.086Z,25.60
2019-04-22T08:56:24.055Z,24.90
2019-04-22T09:02:28.858Z,23.70
2019-04-22T09:05:46.020Z,23.90
2019-04-22T09:08:34.243Z,24.70
2019-04-22T09:14:45.283Z,24.20
2019-04-22T09:18:00.459Z,24.20
2019-04-22T09:21:08.532Z,24.40
2019-04-22T09:24:14.890Z,24.50
2019-04-22T09:27:22.498Z,24.40
2019-04-22T09:30:26.026Z,24.30
2019-04-22T09:39:34.509Z,25.00
2019-04-22T09:42:44.253Z,24.60
2019-04-22T09:45:48.328Z,23.70
2019-04-22T09:49:05.238Z,24.20
2019-04-22T09:52:01.424Z,24.20
2019-04-22T09:55:12.477Z,24.40
2019-04-22T09:58:16.211Z,24.00
2019-04-22T10:01:30.709Z,23.40
2019-04-22T10:04:27.330Z,23.30
2019-04-22T10:07:31.946Z,23.90
2019-04-22T10:10:46.495Z,24.00
2019-04-22T10:13:47.847Z,24.50
2019-04-22T10:16:51.402Z,24.20
2019-04-22T10:20:10.581Z,24.50
2019-04-22T10:23:05.440Z,24.20
2019-04-22T10:26:19.486Z,24.10
2019-04-22T10:29:17.014Z,24.30
2019-04-22T10:32:19.116Z,23.70
2019-04-22T10:35:14.697Z,24.00
2019-04-22T10:38:36.771Z,24.20
2019-04-22T10:41:41.241Z,23.90
2019-04-22T10:44:46.846Z,24.30
2019-04-22T10:47:52.244Z,24.60
2019-04-22T10:50:56.856Z,24.60
2019-04-22T10:54:01.822Z,23.80
2019-04-22T10:57:06.712Z,23.70
2019-04-22T11:00:13.625Z,23.90
2019-04-22T11:03:18.307Z,23.70
2019-04-22T11:06:23.330Z,23.30
2019-04-22T11:09:28.943Z,22.70
2019-04-22T11:12:35.687Z,22.10
2019-04-22T11:15:42.487Z,22.60
2019-04-22T11:18:47.560Z,22.90
2019-04-22T11:22:03.821Z,22.20
2019-04-22T11:24:59.917Z,22.30
2019-04-22T11:28:05.556Z,22.50
2019-04-22T11:31:10.470Z,22.60
2019-04-22T11:34:15.365Z,23.20
2019-04-22T11:37:20.674Z,23.30
2019-04-22T11:40:36.403Z,23.40
2019-04-22T11:43:32.562Z,23.30
2019-04-22T11:46:39.209Z,23.20
2019-04-22T11:49:43.990Z,23.40
2019-04-22T11:52:48.807Z,23.60
2019-04-22T11:55:54.889Z,23.70
2019-04-22T11:59:00.635Z,23.80
2019-04-22T12:02:06.745Z,23.50
2019-04-22T12:05:11.987Z,24.10
2019-04-22T12:08:17.344Z,24.40
2019-04-22T12:11:22.888Z,25.00
2019-04-22T12:14:27.751Z,24.80
2019-04-22T12:17:32.175Z,25.00
2019-04-22T12:20:37.212Z,25.10
2019-04-22T12:23:43.295Z,25.40
2019-04-22T12:26:48.403Z,25.60
2019-04-22T12:29:53.356Z,25.80
2019-04-22T12:32:58.142Z,26.30
2019-04-22T12:36:04.521Z,25.70
2019-04-22T12:39:09.756Z,25.90
2019-04-22T12:42:15.353Z,26.00
2019-04-22T12:45:20.520Z,26.20
2019-04-22T12:48:25.433Z,26.10
2019-04-22T12:51:31.177Z,26.30
2019-04-22T12:54:37.315Z,26.40
2019-04-22T12:57:42.814Z,26.30
2019-04-22T13:00:48.419Z,26.30
2019-04-22T13:03:58.838Z,26.50
2019-04-22T13:07:01.825Z,26.20
2019-04-22T13:10:10.081Z,26.50
2019-04-22T13:13:15.726Z,26.70
2019-04-22T13:16:20.700Z,27.10
2019-04-22T13:19:28.052Z,27.10
2019-04-22T13:22:32.608Z,26.90
2019-04-22T13:25:38.783Z,27.10
2019-04-22T13:28:45.422Z,27.10
2019-04-22T13:31:50.842Z,27.30
2019-04-22T13:34:59.270Z,27.20
2019-04-22T13:38:01.450Z,27.70
2019-04-22T13:41:20.481Z,27.90
2019-04-22T13:44:12.732Z,28.00
2019-04-22T13:47:34.809Z,28.10
2019-04-22T13:54:29.622Z,28.30
2019-04-22T13:56:55.490Z,28.40
2019-04-22T13:59:48.632Z,28.80
2019-04-22T14:02:58.266Z,28.80
2019-04-22T14:06:04.752Z,29.40
2019-04-22T14:09:09.555Z,29.30
2019-04-22T14:12:16.320Z,29.50
2019-04-22T14:15:22.229Z,29.80
2019-04-22T14:18:26.722Z,30.20
2019-04-22T14:21:32.554Z,30.60
2019-04-22T14:24:38.469Z,30.60
2019-04-22T14:27:51.387Z,31.70
2019-04-22T14:30:50.503Z,31.60
2019-04-22T14:33:59.120Z,31.70
2019-04-22T14:37:01.500Z,32.00
2019-04-22T14:40:09.247Z,32.00
2019-04-22T14:43:37.529Z,32.10
2019-04-22T14:46:53.590Z,32.30
2019-04-22T14:49:47.413Z,32.70
2019-04-22T14:52:50.690Z,33.30
2019-04-22T14:55:38.491Z,33.10
2019-04-22T14:58:44.848Z,33.20
2019-04-22T15:01:49.778Z,33.60
2019-04-22T15:04:54.401Z,33.90
2019-04-22T15:07:59.139Z,34.00
2019-04-22T15:11:06.303Z,34.40
2019-04-22T15:14:11.642Z,34.60
2019-04-22T15:17:36.745Z,34.90
2019-04-22T15:20:56.426Z,34.70
2019-04-22T15:24:20.600Z,34.70
2019-04-22T15:27:28.808Z,34.10
2019-04-22T15:30:31.179Z,34.40
2019-04-22T15:33:35.493Z,34.70
2019-04-22T15:36:40.059Z,34.70
2019-04-22T15:39:45.663Z,34.20
2019-04-22T15:42:50.749Z,34.00
2019-04-22T15:45:55.195Z,34.10
2019-04-22T15:49:00.031Z,34.10
2019-04-22T15:52:06.096Z,34.70
2019-04-22T15:55:10.973Z,33.90
2019-04-22T15:58:15.523Z,33.90
2019-04-22T16:01:27.491Z,34.00
2019-04-22T16:04:26.274Z,33.80
2019-04-22T16:07:31.869Z,33.70
2019-04-22T16:10:37.744Z,33.70
2019-04-22T16:13:42.488Z,34.00
2019-04-22T16:16:48.261Z,33.70
2019-04-22T16:19:53.214Z,33.60
2019-04-22T16:23:16.185Z,33.50
2019-04-22T16:26:30.564Z,33.50
2019-04-22T16:29:34.955Z,33.90
2019-04-22T16:32:39.307Z,33.70
2019-04-22T16:35:44.910Z,33.90
2019-04-22T16:38:50.855Z,33.80
2019-04-22T16:41:55.662Z,33.80
2019-04-22T16:45:01.919Z,33.90
2019-04-22T16:48:07.477Z,33.70
2019-04-22T16:51:12.003Z,33.60
2019-04-22T16:54:16.348Z,33.60
2019-04-22T16:57:21.870Z,33.70
2019-04-22T17:00:27.018Z,33.70
2019-04-22T17:03:54.476Z,33.70
2019-04-22T17:06:59.550Z,33.60
2019-04-22T17:10:04.045Z,33.80
2019-04-22T17:13:13.704Z,33.80
2019-04-22T17:16:15.677Z,33.90
2019-04-22T17:19:21.631Z,34.00
2019-04-22T17:22:26.216Z,34.10
2019-04-22T17:25:31.848Z,34.20
2019-04-22T17:28:37.467Z,34.20
2019-04-22T17:31:48.446Z,34.20
2019-04-22T17:34:47.998Z,34.00
2019-04-22T17:38:01.766Z,34.00
2019-04-22T17:41:11.624Z,34.10
2019-04-22T17:44:41.397Z,34.10
2019-04-22T17:47:47.227Z,33.90
2019-04-22T17:51:14.435Z,33.90
2019-04-22T17:54:07.003Z,33.90
2019-04-22T17:57:17.681Z,34.00
2019-04-22T18:00:25.409Z,34.00
2019-04-22T18:03:23.925Z,33.90
2019-04-22T18:06:44.058Z,33.90
2019-04-22T18:10:24.247Z,33.90
2019-04-22T18:13:14.093Z,33.80
2019-04-22T18:15:53.314Z,33.80
2019-04-22T18:18:59.609Z,33.80
2019-04-22T18:22:05.183Z,34.00
2019-04-22T18:25:07.515Z,34.00
2019-04-22T18:28:25.602Z,33.90
2019-04-22T18:31:17.334Z,34.10
2019-04-22T18:34:32.342Z,34.00
2019-04-22T18:37:46.991Z,34.00
2019-04-22T18:40:46.018Z,34.20
2019-04-22T18:44:01.778Z,34.30
2019-04-22T18:47:03.680Z,34.10
2019-04-22T18:50:03.497Z,34.40
2019-04-22T18:53:44.644Z,34.40
2019-04-22T18:56:46.609Z,34.60
2019-04-22T18:59:42.611Z,34.60
2019-04-22T19:02:50.740Z,34.70
2019-04-22T19:06:20.128Z,35.00
2019-04-22T19:09:20.460Z,35.20
2019-04-22T19:12:32.041Z,35.30
2019-04-22T19:15:33.634Z,35.20
2019-04-22T19:18:41.880Z,35.40
2019-04-22T19:21:46.909Z,35.70
2019-04-22T19:24:41.824Z,35.70
2019-04-22T19:27:53.492Z,35.80
2019-04-22T19:31:08.907Z,35.90
2019-04-22T19:34:09.366Z,35.70
2019-04-22T19:37:13.250Z,35.90
2019-04-22T19:40:34.146Z,36.00
2019-04-22T19:43:33.122Z,36.20
2019-04-22T19:46:34.514Z,36.20
2019-04-22T19:49:52.410Z,36.30
2019-04-22T19:52:50.069Z,36.50
2019-04-22T19:55:54.099Z,36.60
2019-04-22T19:58:57.396Z,36.60
2019-04-22T20:02:35.926Z,36.90
2019-04-22T20:05:50.974Z,37.00
2019-04-22T20:08:57.336Z,37.20
2019-04-22T20:12:00.597Z,37.20
2019-04-22T20:15:06.570Z,37.40
2019-04-22T20:21:27.055Z,37.70
2019-04-22T20:24:12.937Z,37.80
2019-04-22T20:27:31.498Z,38.00
2019-04-22T20:30:39.659Z,38.40
2019-04-22T20:33:50.921Z,38.50
2019-04-22T20:39:58.680Z,38.80
2019-04-22T20:43:09.113Z,39.20
2019-04-22T20:46:13.719Z,39.20
2019-04-22T20:49:21.795Z,38.80
2019-04-22T20:55:25.407Z,39.40
2019-04-22T20:58:32.992Z,39.70
2019-04-22T21:01:41.503Z,39.80
2019-04-22T21:04:39.331Z,39.70
2019-04-22T21:07:57.736Z,40.00
2019-04-22T21:10:52.155Z,40.00
2019-04-22T21:14:01.363Z,39.90
2019-04-22T21:17:13.550Z,40.50
2019-04-22T21:20:18.614Z,40.60
2019-04-22T21:23:21.646Z,41.20
2019-04-22T21:26:30.819Z,41.00
2019-04-22T21:29:32.154Z,41.00
2019-04-22T21:32:39.200Z,41.50
2019-04-22T21:35:59.140Z,41.40
2019-04-22T21:38:53.144Z,41.50
2019-04-22T21:41:58.835Z,41.80
2019-04-22T21:45:05.798Z,41.80
2019-04-22T21:48:26.483Z,41.50
2019-04-22T21:51:24.557Z,42.30
2019-04-22T21:54:28.581Z,42.30
2019-04-22T21:57:46.159Z,42.30
2019-04-22T22:01:16.972Z,41.90
2019-04-22T22:04:14.871Z,42.70
2019-04-22T22:07:05.282Z,42.20
2019-04-22T22:10:22.883Z,42.00
2019-04-22T22:13:30.162Z,42.30
2019-04-22T22:16:33.212Z,42.40
2019-04-22T22:19:46.920Z,42.60
2019-04-22T22:22:53.621Z,42.30
2019-04-22T22:25:53.803Z,42.40
2019-04-22T22:29:05.359Z,42.20
2019-04-22T22:32:11.668Z,42.20
2019-04-22T22:35:16.514Z,42.40
2019-04-22T22:38:19.596Z,42.50
2019-04-22T22:41:05.776Z,42.30
2019-04-22T22:44:18.244Z,42.30
2019-04-22T22:47:38.216Z,42.30
2019-04-22T22:50:44.588Z,42.40
2019-04-22T22:53:57.080Z,42.30
2019-04-22T22:57:17.737Z,42.30
2019-04-22T23:00:01.793Z,42.20
2019-04-22T23:03:36.707Z,42.80
2019-04-22T23:06:21.020Z,42.30
2019-04-22T23:09:19.817Z,42.60
2019-04-22T23:12:34.694Z,42.90
2019-04-22T23:15:27.775Z,42.90
2019-04-22T23:18:17.518Z,42.90
2019-04-22T23:21:31.313Z,43.00
2019-04-22T23:24:54.351Z,43.30
2019-04-22T23:28:19.434Z,43.10
2019-04-22T23:31:37.514Z,43.40
2019-04-22T23:34:49.599Z,43.40
2019-04-22T23:38:02.020Z,43.40
2019-04-22T23:41:05.357Z,43.60
2019-04-22T23:44:14.331Z,43.50
2019-04-22T23:47:16.422Z,43.40
2019-04-22T23:50:26.698Z,43.50
2019-04-22T23:53:57.500Z,43.50
2019-04-22T23:56:39.506Z,43.40
2019-04-22T23:59:53.368Z,44.00
